Time;durP1;ratioP1;P1;durP2;ratioP2;P2;SDS_P1;SDS_P2;PMS_P1;PMS_P2;Temp;Humidity;BMP_temperature;BMP_pressure;BME280_temperature;BME280_humidity;BME280_pressure;Samples;Min_cycle;Max_cycle;Signal;HPM_P1;HPM_P2
2021/09/03 00:00:53;;;;;;;14.5;11.55;;;;;;;10.1;91.91309;95728.6;;;;
2021/09/03 00:01:53;;;;;;;15.6;10.85;;;;;;;9.91;92.94629;95708.01;;;;
2021/09/03 00:02:54;;;;;;;15.6;10.85;;;;;;;9.91;92.94629;95708.01;;;;
2021/09/03 00:03:54;;;;;;;15.6;10.85;;;;;;;9.91;92.94629;95708.01;;;;
2021/09/03 00:04:55;;;;;;;15.6;10.85;;;;;;;9.91;92.94629;95708.01;;;;
2021/09/03 00:05:55;;;;;;;15.6;10.85;;;;;;;9.91;92.94629;95708.01;;;;
2021/09/03 00:06:56;;;;;;;15.6;10.85;;;;;;;9.91;92.94629;95708.01;;;;
2021/09/03 00:07:58;;;;;;;15.6;10.85;;;;;;;9.91;92.94629;95708.01;;;;
2021/09/03 00:08:59;;;;;;;15.6;10.85;;;;;;;9.91;92.94629;95708.01;;;;
2021/09/03 00:09:59;;;;;;;15.6;10.85;;;;;;;9.91;92.94629;95708.01;;;;
2021/09/03 00:11:00;;;;;;;15.6;10.85;;;;;;;9.91;92.94629;95708.01;;;;
2021/09/03 00:12:00;;;;;;;15.6;10.85;;;;;;;9.91;92.94629;95708.01;;;;
2021/09/03 00:13:01;;;;;;;13.3;10.05;;;;;;;9.88;93.06641;95693.18;;;;
2021/09/03 00:14:02;;;;;;;13.3;10.05;;;;;;;9.88;93.06641;95693.18;;;;
2021/09/03 00:15:02;;;;;;;13.3;10.05;;;;;;;9.88;93.06641;95693.18;;;;
2021/09/03 00:16:04;;;;;;;13.3;10.05;;;;;;;9.88;93.06641;95693.18;;;;
2021/09/03 00:17:04;;;;;;;13.3;10.05;;;;;;;9.88;93.06641;95693.18;;;;
2021/09/03 00:18:05;;;;;;;13.3;10.05;;;;;;;9.88;93.06641;95693.18;;;;
2021/09/03 00:19:06;;;;;;;13.3;10.05;;;;;;;9.88;93.06641;95693.18;;;;
2021/09/03 00:20:06;;;;;;;13.3;10.05;;;;;;;9.88;93.06641;95693.18;;;;
2021/09/03 00:21:10;;;;;;;13.3;10.05;;;;;;;9.88;93.06641;95693.18;;;;
2021/09/03 00:22:11;;;;;;;13.3;10.05;;;;;;;9.88;93.06641;95693.18;;;;
2021/09/03 00:23:11;;;;;;;12.35;10.25;;;;;;;9.79;93.11328;95687.66;;;;
2021/09/03 00:24:12;;;;;;;12.35;10.25;;;;;;;9.79;93.11328;95687.66;;;;
2021/09/03 00:25:12;;;;;;;12.35;10.25;;;;;;;9.79;93.11328;95687.66;;;;
2021/09/03 00:26:13;;;;;;;12.35;10.25;;;;;;;9.79;93.11328;95687.66;;;;
2021/09/03 00:27:14;;;;;;;12.35;10.25;;;;;;;9.79;93.11328;95687.66;;;;
2021/09/03 00:28:15;;;;;;;12.35;10.25;;;;;;;9.79;93.11328;95687.66;;;;
2021/09/03 00:29:15;;;;;;;12.35;10.25;;;;;;;9.79;93.11328;95687.66;;;;
2021/09/03 00:30:16;;;;;;;12.35;10.25;;;;;;;9.79;93.11328;95687.66;;;;
2021/09/03 00:31:16;;;;;;;12.35;10.25;;;;;;;9.79;93.11328;95687.66;;;;
2021/09/03 00:32:17;;;;;;;12.35;10.25;;;;;;;9.79;93.11328;95687.66;;;;
2021/09/03 00:33:17;;;;;;;12.35;10.25;;;;;;;9.79;93.11328;95687.66;;;;
2021/09/03 00:34:18;;;;;;;12.35;10.25;;;;;;;9.79;93.11328;95687.66;;;;
2021/09/03 00:35:18;;;;;;;12.35;10.25;;;;;;;9.79;93.11328;95687.66;;;;
2021/09/03 00:36:19;;;;;;;12.35;10.25;;;;;;;9.79;93.11328;95687.66;;;;
2021/09/03 00:37:19;;;;;;;12.35;10.25;;;;;;;9.79;93.11328;95687.66;;;;
2021/09/03 00:38:19;;;;;;;12.35;10.25;;;;;;;9.79;93.11328;95687.66;;;;
2021/09/03 00:39:20;;;;;;;12.35;10.25;;;;;;;9.79;93.11328;95687.66;;;;
2021/09/03 00:40:21;;;;;;;12.35;10.25;;;;;;;9.79;93.11328;95687.66;;;;
2021/09/03 00:41:21;;;;;;;12.35;10.25;;;;;;;9.79;93.11328;95687.66;;;;
2021/09/03 00:42:22;;;;;;;12.35;10.25;;;;;;;9.79;93.11328;95687.66;;;;
2021/09/03 00:43:22;;;;;;;12.35;10.25;;;;;;;9.79;93.11328;95687.66;;;;
2021/09/03 00:44:26;;;;;;;12.55;9.4;;;;;;;9.6;93.55957;95682.45;;;;
2021/09/03 00:45:26;;;;;;;12.55;9.4;;;;;;;9.6;93.55957;95682.45;;;;
2021/09/03 00:46:27;;;;;;;12.55;9.4;;;;;;;9.6;93.55957;95682.45;;;;
2021/09/03 00:47:27;;;;;;;12.55;9.4;;;;;;;9.6;93.55957;95682.45;;;;
2021/09/03 00:48:28;;;;;;;12.55;9.4;;;;;;;9.6;93.55957;95682.45;;;;
2021/09/03 00:49:29;;;;;;;12.55;9.4;;;;;;;9.6;93.55957;95682.45;;;;
2021/09/03 00:50:29;;;;;;;12.55;9.4;;;;;;;9.6;93.55957;95682.45;;;;
2021/09/03 00:51:30;;;;;;;12.55;9.4;;;;;;;9.6;93.55957;95682.45;;;;
2021/09/03 00:52:31;;;;;;;12.55;9.4;;;;;;;9.6;93.55957;95682.45;;;;
2021/09/03 00:53:32;;;;;;;12.55;9.4;;;;;;;9.6;93.55957;95682.45;;;;
2021/09/03 00:54:34;;;;;;;12.55;9.4;;;;;;;9.6;93.55957;95682.45;;;;
2021/09/03 00:55:35;;;;;;;14.1;10.1;;;;;;;9.41;93.94629;95680.62;;;;
2021/09/03 00:56:36;;;;;;;14.1;10.1;;;;;;;9.41;93.94629;95680.62;;;;
2021/09/03 00:57:36;;;;;;;14.1;10.1;;;;;;;9.41;93.94629;95680.62;;;;
2021/09/03 00:58:37;;;;;;;14.1;10.1;;;;;;;9.41;93.94629;95680.62;;;;
2021/09/03 00:59:38;;;;;;;14.1;10.1;;;;;;;9.41;93.94629;95680.62;;;;
2021/09/03 01:00:38;;;;;;;14.1;10.1;;;;;;;9.41;93.94629;95680.62;;;;
2021/09/03 01:01:39;;;;;;;14.1;10.1;;;;;;;9.41;93.94629;95680.62;;;;
2021/09/03 01:02:39;;;;;;;14.1;10.1;;;;;;;9.41;93.94629;95680.62;;;;
2021/09/03 01:03:40;;;;;;;14.1;10.1;;;;;;;9.41;93.94629;95680.62;;;;
2021/09/03 01:04:40;;;;;;;14.1;10.1;;;;;;;9.41;93.94629;95680.62;;;;
2021/09/03 01:05:41;;;;;;;12.9;9.749999;;;;;;;9.26;94.53711;95675.67;;;;
2021/09/03 01:06:42;;;;;;;12.9;9.749999;;;;;;;9.26;94.53711;95675.67;;;;
2021/09/03 01:07:42;;;;;;;12.9;9.749999;;;;;;;9.26;94.53711;95675.67;;;;
2021/09/03 01:08:44;;;;;;;12.9;9.749999;;;;;;;9.26;94.53711;95675.67;;;;
2021/09/03 01:09:44;;;;;;;12.9;9.749999;;;;;;;9.26;94.53711;95675.67;;;;
2021/09/03 01:10:45;;;;;;;12.9;9.749999;;;;;;;9.26;94.53711;95675.67;;;;
2021/09/03 01:11:45;;;;;;;12.9;9.749999;;;;;;;9.26;94.53711;95675.67;;;;
2021/09/03 01:12:46;;;;;;;12.9;9.749999;;;;;;;9.26;94.53711;95675.67;;;;
2021/09/03 01:13:48;;;;;;;12.9;9.749999;;;;;;;9.26;94.53711;95675.67;;;;
2021/09/03 01:14:49;;;;;;;12.9;9.749999;;;;;;;9.26;94.53711;95675.67;;;;
2021/09/03 01:15:49;;;;;;;12.9;9.749999;;;;;;;9.26;94.53711;95675.67;;;;
2021/09/03 01:16:50;;;;;;;13.5;10.1;;;;;;;9.12;94.85645;95668.69;;;;
2021/09/03 01:17:51;;;;;;;13.5;10.1;;;;;;;9.12;94.85645;95668.69;;;;
2021/09/03 01:18:52;;;;;;;13.5;10.1;;;;;;;9.12;94.85645;95668.69;;;;
2021/09/03 01:19:53;;;;;;;13.5;10.1;;;;;;;9.12;94.85645;95668.69;;;;
2021/09/03 01:20:53;;;;;;;13.5;10.1;;;;;;;9.12;94.85645;95668.69;;;;
2021/09/03 01:21:54;;;;;;;13.5;10.1;;;;;;;9.12;94.85645;95668.69;;;;
2021/09/03 01:22:54;;;;;;;13.5;10.1;;;;;;;9.12;94.85645;95668.69;;;;
2021/09/03 01:23:55;;;;;;;13.5;10.1;;;;;;;9.12;94.85645;95668.69;;;;
2021/09/03 01:24:55;;;;;;;13.5;10.1;;;;;;;9.12;94.85645;95668.69;;;;
2021/09/03 01:25:56;;;;;;;13.5;10.1;;;;;;;9.12;94.85645;95668.69;;;;
2021/09/03 01:27:01;;;;;;;11.9;9.75;;;;;;;9;95.28711;95666.82;;;;
2021/09/03 01:28:02;;;;;;;11.9;9.75;;;;;;;9;95.28711;95666.82;;;;
2021/09/03 01:29:03;;;;;;;11.9;9.75;;;;;;;9;95.28711;95666.82;;;;
2021/09/03 01:30:04;;;;;;;11.9;9.75;;;;;;;9;95.28711;95666.82;;;;
2021/09/03 01:31:07;;;;;;;11.9;9.75;;;;;;;9;95.28711;95666.82;;;;
2021/09/03 01:32:08;;;;;;;11.9;9.75;;;;;;;9;95.28711;95666.82;;;;
2021/09/03 01:33:08;;;;;;;11.9;9.75;;;;;;;9;95.28711;95666.82;;;;
2021/09/03 01:34:09;;;;;;;11.9;9.75;;;;;;;9;95.28711;95666.82;;;;
2021/09/03 01:35:11;;;;;;;11.9;9.75;;;;;;;9;95.28711;95666.82;;;;
2021/09/03 01:36:11;;;;;;;11.9;9.75;;;;;;;9;95.28711;95666.82;;;;
2021/09/03 01:37:12;;;;;;;11.9;9.75;;;;;;;9;95.28711;95666.82;;;;
2021/09/03 01:38:12;;;;;;;13.8;10.65;;;;;;;8.93;95.57813;95668.72;;;;
2021/09/03 01:39:13;;;;;;;13.8;10.65;;;;;;;8.93;95.57813;95668.72;;;;
2021/09/03 01:40:13;;;;;;;13.8;10.65;;;;;;;8.93;95.57813;95668.72;;;;
2021/09/03 01:41:15;;;;;;;13.8;10.65;;;;;;;8.93;95.57813;95668.72;;;;
2021/09/03 01:42:15;;;;;;;13.8;10.65;;;;;;;8.93;95.57813;95668.72;;;;
2021/09/03 01:43:16;;;;;;;13.8;10.65;;;;;;;8.93;95.57813;95668.72;;;;
2021/09/03 01:44:16;;;;;;;13.8;10.65;;;;;;;8.93;95.57813;95668.72;;;;
2021/09/03 01:45:17;;;;;;;13.8;10.65;;;;;;;8.93;95.57813;95668.72;;;;
2021/09/03 01:46:17;;;;;;;13.8;10.65;;;;;;;8.93;95.57813;95668.72;;;;
2021/09/03 01:47:18;;;;;;;13.8;10.65;;;;;;;8.93;95.57813;95668.72;;;;
2021/09/03 01:48:19;;;;;;;14.5;10.4;;;;;;;8.84;95.80078;95665.14;;;;
2021/09/03 01:49:19;;;;;;;14.5;10.4;;;;;;;8.84;95.80078;95665.14;;;;
2021/09/03 01:50:20;;;;;;;14.5;10.4;;;;;;;8.84;95.80078;95665.14;;;;
2021/09/03 01:51:21;;;;;;;14.5;10.4;;;;;;;8.84;95.80078;95665.14;;;;
2021/09/03 01:52:21;;;;;;;14.5;10.4;;;;;;;8.84;95.80078;95665.14;;;;
2021/09/03 01:53:22;;;;;;;14.5;10.4;;;;;;;8.84;95.80078;95665.14;;;;
2021/09/03 01:54:23;;;;;;;14.5;10.4;;;;;;;8.84;95.80078;95665.14;;;;
2021/09/03 01:55:23;;;;;;;14.5;10.4;;;;;;;8.84;95.80078;95665.14;;;;
2021/09/03 01:56:24;;;;;;;14.5;10.4;;;;;;;8.84;95.80078;95665.14;;;;
2021/09/03 01:57:24;;;;;;;14.5;10.4;;;;;;;8.84;95.80078;95665.14;;;;
2021/09/03 01:58:25;;;;;;;14.5;10.4;;;;;;;8.84;95.80078;95665.14;;;;
2021/09/03 01:59:26;;;;;;;13.6;10.55;;;;;;;8.73;95.95605;95671.2;;;;
2021/09/03 02:00:26;;;;;;;13.6;10.55;;;;;;;8.73;95.95605;95671.2;;;;
2021/09/03 02:01:27;;;;;;;13.6;10.55;;;;;;;8.73;95.95605;95671.2;;;;
2021/09/03 02:02:29;;;;;;;13.6;10.55;;;;;;;8.73;95.95605;95671.2;;;;
2021/09/03 02:03:29;;;;;;;13.6;10.55;;;;;;;8.73;95.95605;95671.2;;;;
2021/09/03 02:04:30;;;;;;;13.6;10.55;;;;;;;8.73;95.95605;95671.2;;;;
2021/09/03 02:05:30;;;;;;;13.6;10.55;;;;;;;8.73;95.95605;95671.2;;;;
2021/09/03 02:06:31;;;;;;;13.6;10.55;;;;;;;8.73;95.95605;95671.2;;;;
2021/09/03 02:07:31;;;;;;;13.6;10.55;;;;;;;8.73;95.95605;95671.2;;;;
2021/09/03 02:08:32;;;;;;;13.6;10.55;;;;;;;8.73;95.95605;95671.2;;;;
2021/09/03 02:09:33;;;;;;;14.35;10.5;;;;;;;8.69;96.05371;95668.66;;;;
2021/09/03 02:10:33;;;;;;;14.35;10.5;;;;;;;8.69;96.05371;95668.66;;;;
2021/09/03 02:11:34;;;;;;;14.35;10.5;;;;;;;8.69;96.05371;95668.66;;;;
2021/09/03 02:12:34;;;;;;;14.35;10.5;;;;;;;8.69;96.05371;95668.66;;;;
2021/09/03 02:13:35;;;;;;;14.35;10.5;;;;;;;8.69;96.05371;95668.66;;;;
2021/09/03 02:14:36;;;;;;;14.35;10.5;;;;;;;8.69;96.05371;95668.66;;;;
2021/09/03 02:15:36;;;;;;;14.35;10.5;;;;;;;8.69;96.05371;95668.66;;;;
2021/09/03 02:16:37;;;;;;;14.35;10.5;;;;;;;8.69;96.05371;95668.66;;;;
2021/09/03 02:17:37;;;;;;;14.35;10.5;;;;;;;8.69;96.05371;95668.66;;;;
2021/09/03 02:18:38;;;;;;;14.35;10.5;;;;;;;8.69;96.05371;95668.66;;;;
2021/09/03 02:19:39;;;;;;;14.35;10.5;;;;;;;8.69;96.05371;95668.66;;;;
2021/09/03 02:20:39;;;;;;;16.1;11.15;;;;;;;8.64;96.01172;95661.72;;;;
2021/09/03 02:21:41;;;;;;;16.1;11.15;;;;;;;8.64;96.01172;95661.72;;;;
2021/09/03 02:22:41;;;;;;;16.1;11.15;;;;;;;8.64;96.01172;95661.72;;;;
2021/09/03 02:23:42;;;;;;;16.1;11.15;;;;;;;8.64;96.01172;95661.72;;;;
2021/09/03 02:24:42;;;;;;;16.1;11.15;;;;;;;8.64;96.01172;95661.72;;;;
2021/09/03 02:25:43;;;;;;;16.1;11.15;;;;;;;8.64;96.01172;95661.72;;;;
2021/09/03 02:26:44;;;;;;;16.1;11.15;;;;;;;8.64;96.01172;95661.72;;;;
2021/09/03 02:27:44;;;;;;;16.1;11.15;;;;;;;8.64;96.01172;95661.72;;;;
2021/09/03 02:28:45;;;;;;;16.1;11.15;;;;;;;8.64;96.01172;95661.72;;;;
2021/09/03 02:29:45;;;;;;;16.1;11.15;;;;;;;8.64;96.01172;95661.72;;;;
2021/09/03 02:30:46;;;;;;;16.1;11.15;;;;;;;8.64;96.01172;95661.72;;;;
2021/09/03 02:31:46;;;;;;;16.1;11.15;;;;;;;8.64;96.01172;95661.72;;;;
2021/09/03 02:32:47;;;;;;;16.1;11.15;;;;;;;8.64;96.01172;95661.72;;;;
2021/09/03 02:33:47;;;;;;;16.1;11.15;;;;;;;8.64;96.01172;95661.72;;;;
2021/09/03 02:34:48;;;;;;;16.1;11.15;;;;;;;8.64;96.01172;95661.72;;;;
2021/09/03 02:35:48;;;;;;;16.1;11.15;;;;;;;8.64;96.01172;95661.72;;;;
2021/09/03 02:36:49;;;;;;;16.1;11.15;;;;;;;8.64;96.01172;95661.72;;;;
2021/09/03 02:37:50;;;;;;;16.1;11.15;;;;;;;8.64;96.01172;95661.72;;;;
2021/09/03 02:38:51;;;;;;;16.1;11.15;;;;;;;8.64;96.01172;95661.72;;;;
2021/09/03 02:39:51;;;;;;;16.1;11.15;;;;;;;8.64;96.01172;95661.72;;;;
2021/09/03 02:40:52;;;;;;;16.1;11.15;;;;;;;8.64;96.01172;95661.72;;;;
2021/09/03 02:41:56;;;;;;;14.65;10.45;;;;;;;8.48;96.3252;95648.77;;;;
2021/09/03 02:42:56;;;;;;;14.65;10.45;;;;;;;8.48;96.3252;95648.77;;;;
2021/09/03 02:43:57;;;;;;;14.65;10.45;;;;;;;8.48;96.3252;95648.77;;;;
2021/09/03 02:44:57;;;;;;;14.65;10.45;;;;;;;8.48;96.3252;95648.77;;;;
2021/09/03 02:45:58;;;;;;;14.65;10.45;;;;;;;8.48;96.3252;95648.77;;;;
2021/09/03 02:46:58;;;;;;;14.65;10.45;;;;;;;8.48;96.3252;95648.77;;;;
2021/09/03 02:48:01;;;;;;;14.65;10.45;;;;;;;8.48;96.3252;95648.77;;;;
2021/09/03 02:49:02;;;;;;;14.65;10.45;;;;;;;8.48;96.3252;95648.77;;;;
2021/09/03 02:50:02;;;;;;;14.65;10.45;;;;;;;8.48;96.3252;95648.77;;;;
2021/09/03 02:51:04;;;;;;;14.65;10.45;;;;;;;8.48;96.3252;95648.77;;;;
2021/09/03 02:52:05;;;;;;;14.65;10.45;;;;;;;8.48;96.3252;95648.77;;;;
2021/09/03 02:53:06;;;;;;;14.15;10.45;;;;;;;8.39;96.49707;95642.81;;;;
2021/09/03 02:54:07;;;;;;;14.15;10.45;;;;;;;8.39;96.49707;95642.81;;;;
2021/09/03 02:55:07;;;;;;;14.15;10.45;;;;;;;8.39;96.49707;95642.81;;;;
2021/09/03 02:56:08;;;;;;;14.15;10.45;;;;;;;8.39;96.49707;95642.81;;;;
2021/09/03 02:57:09;;;;;;;14.15;10.45;;;;;;;8.39;96.49707;95642.81;;;;
2021/09/03 02:58:09;;;;;;;14.15;10.45;;;;;;;8.39;96.49707;95642.81;;;;
2021/09/03 02:59:10;;;;;;;14.15;10.45;;;;;;;8.39;96.49707;95642.81;;;;
2021/09/03 03:00:10;;;;;;;14.15;10.45;;;;;;;8.39;96.49707;95642.81;;;;
2021/09/03 03:01:12;;;;;;;14.15;10.45;;;;;;;8.39;96.49707;95642.81;;;;
2021/09/03 03:02:13;;;;;;;14.15;10.45;;;;;;;8.39;96.49707;95642.81;;;;
2021/09/03 03:03:13;;;;;;;15.15;11.1;;;;;;;8.32;96.61816;95637.56;;;;
2021/09/03 03:04:14;;;;;;;15.15;11.1;;;;;;;8.32;96.61816;95637.56;;;;
2021/09/03 03:05:14;;;;;;;15.15;11.1;;;;;;;8.32;96.61816;95637.56;;;;
2021/09/03 03:06:15;;;;;;;15.15;11.1;;;;;;;8.32;96.61816;95637.56;;;;
2021/09/03 03:07:15;;;;;;;15.15;11.1;;;;;;;8.32;96.61816;95637.56;;;;
2021/09/03 03:08:16;;;;;;;15.15;11.1;;;;;;;8.32;96.61816;95637.56;;;;
2021/09/03 03:09:17;;;;;;;15.15;11.1;;;;;;;8.32;96.61816;95637.56;;;;
2021/09/03 03:10:17;;;;;;;15.15;11.1;;;;;;;8.32;96.61816;95637.56;;;;
2021/09/03 03:11:18;;;;;;;15.15;11.1;;;;;;;8.32;96.61816;95637.56;;;;
2021/09/03 03:12:19;;;;;;;15.15;11.1;;;;;;;8.32;96.61816;95637.56;;;;
2021/09/03 03:13:21;;;;;;;15.15;11.1;;;;;;;8.32;96.61816;95637.56;;;;
2021/09/03 03:14:27;;;;;;;15.7;10.45;;;;;;;8.24;96.76855;95628.78;;;;
2021/09/03 03:15:27;;;;;;;15.7;10.45;;;;;;;8.24;96.76855;95628.78;;;;
2021/09/03 03:16:28;;;;;;;15.7;10.45;;;;;;;8.24;96.76855;95628.78;;;;
2021/09/03 03:17:29;;;;;;;15.7;10.45;;;;;;;8.24;96.76855;95628.78;;;;
2021/09/03 03:18:29;;;;;;;15.7;10.45;;;;;;;8.24;96.76855;95628.78;;;;
2021/09/03 03:19:30;;;;;;;15.7;10.45;;;;;;;8.24;96.76855;95628.78;;;;
2021/09/03 03:20:31;;;;;;;15.7;10.45;;;;;;;8.24;96.76855;95628.78;;;;
2021/09/03 03:21:31;;;;;;;15.7;10.45;;;;;;;8.24;96.76855;95628.78;;;;
2021/09/03 03:22:32;;;;;;;15.7;10.45;;;;;;;8.24;96.76855;95628.78;;;;
2021/09/03 03:23:32;;;;;;;15.7;10.45;;;;;;;8.24;96.76855;95628.78;;;;
2021/09/03 03:24:33;;;;;;;16.45;11;;;;;;;8.1;97.09863;95617.74;;;;
2021/09/03 03:25:34;;;;;;;16.45;11;;;;;;;8.1;97.09863;95617.74;;;;
2021/09/03 03:26:34;;;;;;;16.45;11;;;;;;;8.1;97.09863;95617.74;;;;
2021/09/03 03:27:35;;;;;;;16.45;11;;;;;;;8.1;97.09863;95617.74;;;;
2021/09/03 03:28:35;;;;;;;16.45;11;;;;;;;8.1;97.09863;95617.74;;;;
2021/09/03 03:29:36;;;;;;;16.45;11;;;;;;;8.1;97.09863;95617.74;;;;
2021/09/03 03:30:36;;;;;;;16.45;11;;;;;;;8.1;97.09863;95617.74;;;;
2021/09/03 03:31:37;;;;;;;16.45;11;;;;;;;8.1;97.09863;95617.74;;;;
2021/09/03 03:32:38;;;;;;;16.45;11;;;;;;;8.1;97.09863;95617.74;;;;
2021/09/03 03:33:38;;;;;;;16.45;11;;;;;;;8.1;97.09863;95617.74;;;;
2021/09/03 03:34:39;;;;;;;16.45;11;;;;;;;8.1;97.09863;95617.74;;;;
2021/09/03 03:35:39;;;;;;;15.2;10.35;;;;;;;7.97;97.56543;95611.47;;;;
2021/09/03 03:36:40;;;;;;;15.2;10.35;;;;;;;7.97;97.56543;95611.47;;;;
2021/09/03 03:37:40;;;;;;;15.2;10.35;;;;;;;7.97;97.56543;95611.47;;;;
2021/09/03 03:38:41;;;;;;;15.2;10.35;;;;;;;7.97;97.56543;95611.47;;;;
2021/09/03 03:39:42;;;;;;;15.2;10.35;;;;;;;7.97;97.56543;95611.47;;;;
2021/09/03 03:40:42;;;;;;;15.2;10.35;;;;;;;7.97;97.56543;95611.47;;;;
2021/09/03 03:41:43;;;;;;;15.2;10.35;;;;;;;7.97;97.56543;95611.47;;;;
2021/09/03 03:42:43;;;;;;;15.2;10.35;;;;;;;7.97;97.56543;95611.47;;;;
2021/09/03 03:43:44;;;;;;;15.2;10.35;;;;;;;7.97;97.56543;95611.47;;;;
2021/09/03 03:44:45;;;;;;;15.2;10.35;;;;;;;7.97;97.56543;95611.47;;;;
2021/09/03 03:45:45;;;;;;;14.35;9.550001;;;;;;;7.88;97.87109;95615.42;;;;
2021/09/03 03:46:46;;;;;;;14.35;9.550001;;;;;;;7.88;97.87109;95615.42;;;;
2021/09/03 03:47:46;;;;;;;14.35;9.550001;;;;;;;7.88;97.87109;95615.42;;;;
2021/09/03 03:48:47;;;;;;;14.35;9.550001;;;;;;;7.88;97.87109;95615.42;;;;
2021/09/03 03:49:47;;;;;;;14.35;9.550001;;;;;;;7.88;97.87109;95615.42;;;;
2021/09/03 03:50:48;;;;;;;14.35;9.550001;;;;;;;7.88;97.87109;95615.42;;;;
2021/09/03 03:51:48;;;;;;;14.35;9.550001;;;;;;;7.88;97.87109;95615.42;;;;
2021/09/03 03:52:49;;;;;;;14.35;9.550001;;;;;;;7.88;97.87109;95615.42;;;;
2021/09/03 03:53:49;;;;;;;14.35;9.550001;;;;;;;7.88;97.87109;95615.42;;;;
2021/09/03 03:54:50;;;;;;;14.35;9.550001;;;;;;;7.88;97.87109;95615.42;;;;
2021/09/03 03:55:50;;;;;;;14.35;9.550001;;;;;;;7.88;97.87109;95615.42;;;;
2021/09/03 03:56:51;;;;;;;13.55;9.599999;;;;;;;7.87;97.92188;95627.23;;;;
2021/09/03 03:57:52;;;;;;;13.55;9.599999;;;;;;;7.87;97.92188;95627.23;;;;
2021/09/03 03:58:52;;;;;;;13.55;9.599999;;;;;;;7.87;97.92188;95627.23;;;;
2021/09/03 03:59:53;;;;;;;13.55;9.599999;;;;;;;7.87;97.92188;95627.23;;;;
2021/09/03 04:00:53;;;;;;;13.55;9.599999;;;;;;;7.87;97.92188;95627.23;;;;
2021/09/03 04:01:54;;;;;;;13.55;9.599999;;;;;;;7.87;97.92188;95627.23;;;;
2021/09/03 04:02:54;;;;;;;13.55;9.599999;;;;;;;7.87;97.92188;95627.23;;;;
2021/09/03 04:03:55;;;;;;;13.55;9.599999;;;;;;;7.87;97.92188;95627.23;;;;
2021/09/03 04:04:55;;;;;;;13.55;9.599999;;;;;;;7.87;97.92188;95627.23;;;;
2021/09/03 04:05:56;;;;;;;13.55;9.599999;;;;;;;7.87;97.92188;95627.23;;;;
2021/09/03 04:06:57;;;;;;;12.6;9.950002;;;;;;;7.85;97.84375;95622.58;;;;
2021/09/03 04:07:57;;;;;;;12.6;9.950002;;;;;;;7.85;97.84375;95622.58;;;;
2021/09/03 04:08:58;;;;;;;12.6;9.950002;;;;;;;7.85;97.84375;95622.58;;;;
2021/09/03 04:09:58;;;;;;;12.6;9.950002;;;;;;;7.85;97.84375;95622.58;;;;
2021/09/03 04:10:58;;;;;;;12.6;9.950002;;;;;;;7.85;97.84375;95622.58;;;;
2021/09/03 04:11:59;;;;;;;12.6;9.950002;;;;;;;7.85;97.84375;95622.58;;;;
2021/09/03 04:12:59;;;;;;;12.6;9.950002;;;;;;;7.85;97.84375;95622.58;;;;
2021/09/03 04:14:01;;;;;;;12.6;9.950002;;;;;;;7.85;97.84375;95622.58;;;;
2021/09/03 04:15:01;;;;;;;12.6;9.950002;;;;;;;7.85;97.84375;95622.58;;;;
2021/09/03 04:16:02;;;;;;;12.6;9.950002;;;;;;;7.85;97.84375;95622.58;;;;
2021/09/03 04:17:03;;;;;;;12.6;9.950002;;;;;;;7.85;97.84375;95622.58;;;;
2021/09/03 04:18:04;;;;;;;14.35;10.4;;;;;;;7.82;97.91211;95615.88;;;;
2021/09/03 04:19:04;;;;;;;14.35;10.4;;;;;;;7.82;97.91211;95615.88;;;;
2021/09/03 04:20:05;;;;;;;14.35;10.4;;;;;;;7.82;97.91211;95615.88;;;;
2021/09/03 04:21:06;;;;;;;14.35;10.4;;;;;;;7.82;97.91211;95615.88;;;;
2021/09/03 04:22:07;;;;;;;14.35;10.4;;;;;;;7.82;97.91211;95615.88;;;;
2021/09/03 04:23:09;;;;;;;14.35;10.4;;;;;;;7.82;97.91211;95615.88;;;;
2021/09/03 04:24:09;;;;;;;14.35;10.4;;;;;;;7.82;97.91211;95615.88;;;;
2021/09/03 04:25:10;;;;;;;14.35;10.4;;;;;;;7.82;97.91211;95615.88;;;;
2021/09/03 04:26:11;;;;;;;14.35;10.4;;;;;;;7.82;97.91211;95615.88;;;;
2021/09/03 04:27:12;;;;;;;14.35;10.4;;;;;;;7.82;97.91211;95615.88;;;;
2021/09/03 04:28:12;;;;;;;15.4;10.75;;;;;;;7.77;98.03027;95615.56;;;;
2021/09/03 04:29:13;;;;;;;15.4;10.75;;;;;;;7.77;98.03027;95615.56;;;;
2021/09/03 04:30:13;;;;;;;15.4;10.75;;;;;;;7.77;98.03027;95615.56;;;;
2021/09/03 04:31:14;;;;;;;15.4;10.75;;;;;;;7.77;98.03027;95615.56;;;;
2021/09/03 04:32:15;;;;;;;15.4;10.75;;;;;;;7.77;98.03027;95615.56;;;;
2021/09/03 04:33:15;;;;;;;15.4;10.75;;;;;;;7.77;98.03027;95615.56;;;;
2021/09/03 04:34:16;;;;;;;15.4;10.75;;;;;;;7.77;98.03027;95615.56;;;;
2021/09/03 04:35:16;;;;;;;15.4;10.75;;;;;;;7.77;98.03027;95615.56;;;;
2021/09/03 04:36:17;;;;;;;15.4;10.75;;;;;;;7.77;98.03027;95615.56;;;;
2021/09/03 04:37:17;;;;;;;15.4;10.75;;;;;;;7.77;98.03027;95615.56;;;;
2021/09/03 04:38:18;;;;;;;15.4;10.75;;;;;;;7.77;98.03027;95615.56;;;;
2021/09/03 04:39:18;;;;;;;13.45;10.4;;;;;;;7.73;98.19824;95613.01;;;;
2021/09/03 04:40:19;;;;;;;13.45;10.4;;;;;;;7.73;98.19824;95613.01;;;;
2021/09/03 04:41:20;;;;;;;13.45;10.4;;;;;;;7.73;98.19824;95613.01;;;;
2021/09/03 04:42:21;;;;;;;13.45;10.4;;;;;;;7.73;98.19824;95613.01;;;;
2021/09/03 04:43:22;;;;;;;13.45;10.4;;;;;;;7.73;98.19824;95613.01;;;;
2021/09/03 04:44:22;;;;;;;13.45;10.4;;;;;;;7.73;98.19824;95613.01;;;;
2021/09/03 04:45:23;;;;;;;13.45;10.4;;;;;;;7.73;98.19824;95613.01;;;;
2021/09/03 04:46:23;;;;;;;13.45;10.4;;;;;;;7.73;98.19824;95613.01;;;;
2021/09/03 04:47:24;;;;;;;13.45;10.4;;;;;;;7.73;98.19824;95613.01;;;;
2021/09/03 04:48:24;;;;;;;13.45;10.4;;;;;;;7.73;98.19824;95613.01;;;;
2021/09/03 04:49:25;;;;;;;13.45;10.4;;;;;;;7.73;98.19824;95613.01;;;;
2021/09/03 04:50:25;;;;;;;12.8;10.25;;;;;;;7.66;98.53027;95614.06;;;;
2021/09/03 04:51:26;;;;;;;12.8;10.25;;;;;;;7.66;98.53027;95614.06;;;;
2021/09/03 04:52:26;;;;;;;12.8;10.25;;;;;;;7.66;98.53027;95614.06;;;;
2021/09/03 04:53:27;;;;;;;12.8;10.25;;;;;;;7.66;98.53027;95614.06;;;;
2021/09/03 04:54:28;;;;;;;12.8;10.25;;;;;;;7.66;98.53027;95614.06;;;;
2021/09/03 04:55:28;;;;;;;12.8;10.25;;;;;;;7.66;98.53027;95614.06;;;;
2021/09/03 04:56:29;;;;;;;12.8;10.25;;;;;;;7.66;98.53027;95614.06;;;;
2021/09/03 04:57:29;;;;;;;12.8;10.25;;;;;;;7.66;98.53027;95614.06;;;;
2021/09/03 04:58:30;;;;;;;12.8;10.25;;;;;;;7.66;98.53027;95614.06;;;;
2021/09/03 04:59:31;;;;;;;12.8;10.25;;;;;;;7.66;98.53027;95614.06;;;;
2021/09/03 05:00:31;;;;;;;15.7;10.85;;;;;;;7.66;99.10156;95619.85;;;;
2021/09/03 05:01:32;;;;;;;15.7;10.85;;;;;;;7.66;99.10156;95619.85;;;;
2021/09/03 05:02:33;;;;;;;15.7;10.85;;;;;;;7.66;99.10156;95619.85;;;;
2021/09/03 05:03:33;;;;;;;15.7;10.85;;;;;;;7.66;99.10156;95619.85;;;;
2021/09/03 05:04:34;;;;;;;15.7;10.85;;;;;;;7.66;99.10156;95619.85;;;;
2021/09/03 05:05:34;;;;;;;15.7;10.85;;;;;;;7.66;99.10156;95619.85;;;;
2021/09/03 05:06:35;;;;;;;15.7;10.85;;;;;;;7.66;99.10156;95619.85;;;;
2021/09/03 05:07:35;;;;;;;15.7;10.85;;;;;;;7.66;99.10156;95619.85;;;;
2021/09/03 05:08:36;;;;;;;15.7;10.85;;;;;;;7.66;99.10156;95619.85;;;;
2021/09/03 05:09:37;;;;;;;15.7;10.85;;;;;;;7.66;99.10156;95619.85;;;;
2021/09/03 05:10:37;;;;;;;15.7;10.85;;;;;;;7.66;99.10156;95619.85;;;;
2021/09/03 05:11:38;;;;;;;12.6;10.25;;;;;;;7.79;99.54102;95623.03;;;;
2021/09/03 05:12:38;;;;;;;12.6;10.25;;;;;;;7.79;99.54102;95623.03;;;;
2021/09/03 05:13:40;;;;;;;12.6;10.25;;;;;;;7.79;99.54102;95623.03;;;;
2021/09/03 05:14:41;;;;;;;12.6;10.25;;;;;;;7.79;99.54102;95623.03;;;;
2021/09/03 05:15:41;;;;;;;12.6;10.25;;;;;;;7.79;99.54102;95623.03;;;;
2021/09/03 05:16:43;;;;;;;12.6;10.25;;;;;;;7.79;99.54102;95623.03;;;;
2021/09/03 05:17:48;;;;;;;12.6;10.25;;;;;;;7.79;99.54102;95623.03;;;;
2021/09/03 05:18:49;;;;;;;12.6;10.25;;;;;;;7.79;99.54102;95623.03;;;;
2021/09/03 05:19:49;;;;;;;12.6;10.25;;;;;;;7.79;99.54102;95623.03;;;;
2021/09/03 05:20:50;;;;;;;12.6;10.25;;;;;;;7.79;99.54102;95623.03;;;;
2021/09/03 05:21:50;;;;;;;14.4;10.3;;;;;;;7.92;99.69824;95617.5;;;;
2021/09/03 05:22:51;;;;;;;14.4;10.3;;;;;;;7.92;99.69824;95617.5;;;;
2021/09/03 05:23:51;;;;;;;14.4;10.3;;;;;;;7.92;99.69824;95617.5;;;;
2021/09/03 05:24:52;;;;;;;14.4;10.3;;;;;;;7.92;99.69824;95617.5;;;;
2021/09/03 05:25:52;;;;;;;14.4;10.3;;;;;;;7.92;99.69824;95617.5;;;;
2021/09/03 05:26:53;;;;;;;14.4;10.3;;;;;;;7.92;99.69824;95617.5;;;;
2021/09/03 05:27:53;;;;;;;14.4;10.3;;;;;;;7.92;99.69824;95617.5;;;;
2021/09/03 05:28:54;;;;;;;14.4;10.3;;;;;;;7.92;99.69824;95617.5;;;;
2021/09/03 05:29:54;;;;;;;14.4;10.3;;;;;;;7.92;99.69824;95617.5;;;;
2021/09/03 05:30:55;;;;;;;14.4;10.3;;;;;;;7.92;99.69824;95617.5;;;;
2021/09/03 05:31:56;;;;;;;14.4;10.3;;;;;;;7.92;99.69824;95617.5;;;;
2021/09/03 05:32:56;;;;;;;14.7;9.950001;;;;;;;8.18;99.74805;95616.6;;;;
2021/09/03 05:33:57;;;;;;;14.7;9.950001;;;;;;;8.18;99.74805;95616.6;;;;
2021/09/03 05:34:57;;;;;;;14.7;9.950001;;;;;;;8.18;99.74805;95616.6;;;;
2021/09/03 05:35:58;;;;;;;14.7;9.950001;;;;;;;8.18;99.74805;95616.6;;;;
2021/09/03 05:36:58;;;;;;;14.7;9.950001;;;;;;;8.18;99.74805;95616.6;;;;
2021/09/03 05:38:04;;;;;;;14.7;9.950001;;;;;;;8.18;99.74805;95616.6;;;;
2021/09/03 05:39:04;;;;;;;14.7;9.950001;;;;;;;8.18;99.74805;95616.6;;;;
2021/09/03 05:40:05;;;;;;;14.7;9.950001;;;;;;;8.18;99.74805;95616.6;;;;
2021/09/03 05:41:07;;;;;;;14.7;9.950001;;;;;;;8.18;99.74805;95616.6;;;;
2021/09/03 05:42:08;;;;;;;14.7;9.950001;;;;;;;8.18;99.74805;95616.6;;;;
2021/09/03 05:43:09;;;;;;;17.2;11.1;;;;;;;8.51;99.90527;95626.83;;;;